sensor_id;sensor_type;location;lat;lon;timestamp;pressure;altitude;pressure_sealevel;temperature;humidity
64827;BME280;51265;53.972;12.286;2024-03-07T00:00:06;102030.06;;;2.90;100.00
64827;BME280;51265;53.972;12.286;2024-03-07T00:02:41;102031.72;;;2.91;100.00
64827;BME280;51265;53.972;12.286;2024-03-07T00:05:07;102030.06;;;2.83;100.00
64827;BME280;51265;53.972;12.286;2024-03-07T00:07:34;102035.28;;;2.91;100.00
64827;BME280;51265;53.972;12.286;2024-03-07T00:10:03;102040.09;;;2.96;100.00
64827;BME280;51265;53.972;12.286;2024-03-07T00:12:36;102038.84;;;2.98;100.00
64827;BME280;51265;53.972;12.286;2024-03-07T00:15:06;102032.16;;;2.94;100.00
64827;BME280;51265;53.972;12.286;2024-03-07T00:17:33;102026.75;;;2.81;100.00
64827;BME280;51265;53.972;12.286;2024-03-07T00:19:59;102023.78;;;2.83;100.00
64827;BME280;51265;53.972;12.286;2024-03-07T00:22:25;102022.56;;;2.85;100.00
64827;BME280;51265;53.972;12.286;2024-03-07T00:24:53;102028.59;;;2.94;100.00
64827;BME280;51265;53.972;12.286;2024-03-07T00:27:19;102020.03;;;2.84;100.00
64827;BME280;51265;53.972;12.286;2024-03-07T00:29:48;102019.22;;;2.77;100.00
64827;BME280;51265;53.972;12.286;2024-03-07T00:32:20;102014.22;;;2.60;100.00
64827;BME280;51265;53.972;12.286;2024-03-07T00:34:47;102014.88;;;2.49;100.00
64827;BME280;51265;53.972;12.286;2024-03-07T00:37:14;102015.69;;;2.56;100.00
64827;BME280;51265;53.972;12.286;2024-03-07T00:39:40;102020.91;;;2.58;100.00
64827;BME280;51265;53.972;12.286;2024-03-07T00:42:06;102031.38;;;2.61;100.00
64827;BME280;51265;53.972;12.286;2024-03-07T00:44:33;102037.66;;;2.68;100.00
64827;BME280;51265;53.972;12.286;2024-03-07T00:47:01;102032.63;;;2.58;100.00
64827;BME280;51265;53.972;12.286;2024-03-07T00:49:30;102020.09;;;2.50;100.00
64827;BME280;51265;53.972;12.286;2024-03-07T00:51:59;102025.53;;;2.57;100.00
64827;BME280;51265;53.972;12.286;2024-03-07T00:54:26;102022.38;;;2.54;100.00
64827;BME280;51265;53.972;12.286;2024-03-07T00:56:52;102025.53;;;2.64;100.00
64827;BME280;51265;53.972;12.286;2024-03-07T00:59:20;102019.44;;;2.62;100.00
64827;BME280;51265;53.972;12.286;2024-03-07T01:01:46;102014.66;;;2.50;100.00
64827;BME280;51265;53.972;12.286;2024-03-07T01:04:12;102010.25;;;2.56;100.00
64827;BME280;51265;53.972;12.286;2024-03-07T01:06:39;102015.91;;;2.61;100.00
64827;BME280;51265;53.972;12.286;2024-03-07T01:09:07;102021.75;;;2.65;100.00
64827;BME280;51265;53.972;12.286;2024-03-07T01:11:42;102018.38;;;2.69;100.00
64827;BME280;51265;53.972;12.286;2024-03-07T01:14:09;102013.81;;;2.50;100.00
64827;BME280;51265;53.972;12.286;2024-03-07T01:16:35;102006.72;;;2.49;100.00
64827;BME280;51265;53.972;12.286;2024-03-07T01:19:02;101997.31;;;2.52;100.00
64827;BME280;51265;53.972;12.286;2024-03-07T01:21:29;101994.78;;;2.50;100.00
64827;BME280;51265;53.972;12.286;2024-03-07T01:23:55;101992.09;;;2.43;100.00
64827;BME280;51265;53.972;12.286;2024-03-07T01:26:21;101999.19;;;2.44;100.00
64827;BME280;51265;53.972;12.286;2024-03-07T01:28:48;102005.03;;;2.48;100.00
64827;BME280;51265;53.972;12.286;2024-03-07T01:31:14;101992.09;;;2.43;100.00
64827;BME280;51265;53.972;12.286;2024-03-07T01:33:40;102001.69;;;2.53;100.00
64827;BME280;51265;53.972;12.286;2024-03-07T01:36:06;102007.13;;;2.53;100.00
64827;BME280;51265;53.972;12.286;2024-03-07T01:38:32;102005.66;;;2.50;100.00
64827;BME280;51265;53.972;12.286;2024-03-07T01:40:58;101993.75;;;2.51;100.00
64827;BME280;51265;53.972;12.286;2024-03-07T01:43:24;101993.75;;;2.44;100.00
64827;BME280;51265;53.972;12.286;2024-03-07T01:45:53;101984.16;;;2.35;100.00
64827;BME280;51265;53.972;12.286;2024-03-07T01:48:25;101999.59;;;2.41;100.00
64827;BME280;51265;53.972;12.286;2024-03-07T01:50:53;101994.78;;;2.37;100.00
64827;BME280;51265;53.972;12.286;2024-03-07T01:53:19;101999.78;;;2.46;100.00
64827;BME280;51265;53.972;12.286;2024-03-07T01:55:45;101998.97;;;2.53;100.00
64827;BME280;51265;53.972;12.286;2024-03-07T01:58:13;101992.88;;;2.50;100.00
64827;BME280;51265;53.972;12.286;2024-03-07T02:00:43;101987.91;;;2.47;100.00
64827;BME280;51265;53.972;12.286;2024-03-07T02:03:09;101992.50;;;2.47;100.00
64827;BME280;51265;53.972;12.286;2024-03-07T02:05:36;101988.09;;;2.53;100.00
64827;BME280;51265;53.972;12.286;2024-03-07T02:08:02;101996.25;;;2.59;100.00
64827;BME280;51265;53.972;12.286;2024-03-07T02:10:29;101987.88;;;2.54;100.00
64827;BME280;51265;53.972;12.286;2024-03-07T02:12:55;101988.09;;;2.46;100.00
64827;BME280;51265;53.972;12.286;2024-03-07T02:15:21;101982.25;;;2.29;100.00
64827;BME280;51265;53.972;12.286;2024-03-07T02:17:48;101985.19;;;2.34;100.00
64827;BME280;51265;53.972;12.286;2024-03-07T02:20:14;101998.13;;;2.45;100.00
64827;BME280;51265;53.972;12.286;2024-03-07T02:22:41;101987.66;;;2.42;100.00
64827;BME280;51265;53.972;12.286;2024-03-07T02:25:08;101993.34;;;2.47;100.00
64827;BME280;51265;53.972;12.286;2024-03-07T02:27:39;101999.56;;;2.55;100.00
64827;BME280;51265;53.972;12.286;2024-03-07T02:30:05;101990.59;;;2.61;100.00
64827;BME280;51265;53.972;12.286;2024-03-07T02:32:34;101996.63;;;2.63;100.00
64827;BME280;51265;53.972;12.286;2024-03-07T02:35:04;101974.91;;;2.56;100.00
64827;BME280;51265;53.972;12.286;2024-03-07T02:37:30;101977.41;;;2.58;100.00
64827;BME280;51265;53.972;12.286;2024-03-07T02:39:57;101987.03;;;2.60;100.00
64827;BME280;51265;53.972;12.286;2024-03-07T02:42:24;101987.00;;;2.67;100.00
64827;BME280;51265;53.972;12.286;2024-03-07T02:44:50;101984.09;;;2.62;100.00
64827;BME280;51265;53.972;12.286;2024-03-07T02:47:18;101980.75;;;2.60;100.00
64827;BME280;51265;53.972;12.286;2024-03-07T02:49:44;101979.06;;;2.59;100.00
64827;BME280;51265;53.972;12.286;2024-03-07T02:52:11;101986.63;;;2.57;100.00
64827;BME280;51265;53.972;12.286;2024-03-07T02:54:37;101991.19;;;2.69;100.00
64827;BME280;51265;53.972;12.286;2024-03-07T02:57:03;101987.41;;;2.77;100.00
64827;BME280;51265;53.972;12.286;2024-03-07T02:59:29;101994.94;;;2.75;100.00
64827;BME280;51265;53.972;12.286;2024-03-07T03:01:55;101978.22;;;2.65;100.00
64827;BME280;51265;53.972;12.286;2024-03-07T03:04:22;101994.31;;;2.73;100.00
64827;BME280;51265;53.972;12.286;2024-03-07T03:06:48;101994.50;;;2.78;100.00
64827;BME280;51265;53.972;12.286;2024-03-07T03:09:14;101981.13;;;2.70;100.00
64827;BME280;51265;53.972;12.286;2024-03-07T03:11:44;101981.97;;;2.70;100.00
64827;BME280;51265;53.972;12.286;2024-03-07T03:14:12;101986.16;;;2.73;100.00
64827;BME280;51265;53.972;12.286;2024-03-07T03:16:43;101994.09;;;2.81;100.00
64827;BME280;51265;53.972;12.286;2024-03-07T03:19:10;101995.75;;;2.82;100.00
64827;BME280;51265;53.972;12.286;2024-03-07T03:21:36;101987.38;;;2.84;100.00
64827;BME280;51265;53.972;12.286;2024-03-07T03:24:04;101982.38;;;2.81;100.00
64827;BME280;51265;53.972;12.286;2024-03-07T03:26:30;101993.63;;;2.91;100.00
64827;BME280;51265;53.972;12.286;2024-03-07T03:28:58;101988.63;;;2.88;100.00
64827;BME280;51265;53.972;12.286;2024-03-07T03:31:25;101990.72;;;2.86;100.00
64827;BME280;51265;53.972;12.286;2024-03-07T03:33:51;101991.94;;;2.96;100.00
64827;BME280;51265;53.972;12.286;2024-03-07T03:36:17;101983.59;;;2.91;100.00
64827;BME280;51265;53.972;12.286;2024-03-07T03:38:44;101989.03;;;2.91;100.00
64827;BME280;51265;53.972;12.286;2024-03-07T03:41:17;101987.72;;;3.00;100.00
64827;BME280;51265;53.972;12.286;2024-03-07T03:43:44;101993.16;;;3.00;100.00
64827;BME280;51265;53.972;12.286;2024-03-07T03:46:11;101992.78;;;2.97;100.00
64827;BME280;51265;53.972;12.286;2024-03-07T03:48:39;101994.47;;;2.98;100.00
64827;BME280;51265;53.972;12.286;2024-03-07T03:51:08;101990.25;;;2.95;100.00
64827;BME280;51265;53.972;12.286;2024-03-07T03:53:35;101996.59;;;2.89;100.00
64827;BME280;51265;53.972;12.286;2024-03-07T03:56:03;101998.25;;;2.90;100.00
64827;BME280;51265;53.972;12.286;2024-03-07T03:58:30;101996.59;;;2.89;100.00
64827;BME280;51265;53.972;12.286;2024-03-07T04:00:57;102003.25;;;2.93;100.00
64827;BME280;51265;53.972;12.286;2024-03-07T04:03:24;102000.72;;;2.98;100.00
64827;BME280;51265;53.972;12.286;2024-03-07T04:05:51;101994.22;;;2.99;100.00
64827;BME280;51265;53.972;12.286;2024-03-07T04:08:17;101993.63;;;2.97;100.00
64827;BME280;51265;53.972;12.286;2024-03-07T04:10:46;102003.03;;;3.02;100.00
64827;BME280;51265;53.972;12.286;2024-03-07T04:13:12;102001.56;;;2.99;100.00
64827;BME280;51265;53.972;12.286;2024-03-07T04:15:39;101995.72;;;2.95;100.00
64827;BME280;51265;53.972;12.286;2024-03-07T04:18:05;101999.06;;;2.97;100.00
64827;BME280;51265;53.972;12.286;2024-03-07T04:20:33;101996.53;;;3.03;100.00
64827;BME280;51265;53.972;12.286;2024-03-07T04:22:59;101999.25;;;3.03;100.00
64827;BME280;51265;53.972;12.286;2024-03-07T04:25:25;102003.63;;;3.04;100.00
64827;BME280;51265;53.972;12.286;2024-03-07T04:27:51;101998.38;;;3.09;100.00
64827;BME280;51265;53.972;12.286;2024-03-07T04:30:17;101988.78;;;2.99;100.00
64827;BME280;51265;53.972;12.286;2024-03-07T04:32:44;101999.91;;;2.91;100.00
64827;BME280;51265;53.972;12.286;2024-03-07T04:35:10;101993.03;;;2.82;100.00
64827;BME280;51265;53.972;12.286;2024-03-07T04:37:37;102000.78;;;2.85;100.00
64827;BME280;51265;53.972;12.286;2024-03-07T04:40:04;102012.06;;;2.89;100.00
64827;BME280;51265;53.972;12.286;2024-03-07T04:42:45;102014.56;;;2.90;100.00
64827;BME280;51265;53.972;12.286;2024-03-07T04:45:12;102009.94;;;2.97;100.00
64827;BME280;51265;53.972;12.286;2024-03-07T04:47:43;102015.81;;;3.01;100.00
64827;BME280;51265;53.972;12.286;2024-03-07T04:50:10;102015.59;;;3.03;100.00
64827;BME280;51265;53.972;12.286;2024-03-07T04:52:37;102022.03;;;3.08;100.00
64827;BME280;51265;53.972;12.286;2024-03-07T04:55:06;102017.44;;;3.09;100.00
64827;BME280;51265;53.972;12.286;2024-03-07T04:57:35;102007.38;;;3.16;100.00
64827;BME280;51265;53.972;12.286;2024-03-07T05:00:01;102009.06;;;3.04;100.00
64827;BME280;51265;53.972;12.286;2024-03-07T05:02:29;102013.69;;;3.10;100.00
64827;BME280;51265;53.972;12.286;2024-03-07T05:04:55;102015.34;;;3.11;100.00
64827;BME280;51265;53.972;12.286;2024-03-07T05:07:21;102013.22;;;3.13;100.00
64827;BME280;51265;53.972;12.286;2024-03-07T05:09:47;102014.94;;;3.00;100.00
64827;BME280;51265;53.972;12.286;2024-03-07T05:12:14;102013.69;;;2.96;100.00
64827;BME280;51265;53.972;12.286;2024-03-07T05:14:40;102017.88;;;3.06;100.00
64827;BME280;51265;53.972;12.286;2024-03-07T05:17:06;102019.31;;;3.08;100.00
64827;BME280;51265;53.972;12.286;2024-03-07T05:19:35;102007.84;;;2.99;100.00
64827;BME280;51265;53.972;12.286;2024-03-07T05:22:02;102014.94;;;3.00;100.00
64827;BME280;51265;53.972;12.286;2024-03-07T05:24:31;102013.09;;;2.94;100.00
64827;BME280;51265;53.972;12.286;2024-03-07T05:26:58;102017.28;;;2.90;100.00
64827;BME280;51265;53.972;12.286;2024-03-07T05:29:25;102015.81;;;2.94;100.00
64827;BME280;51265;53.972;12.286;2024-03-07T05:31:51;102021.25;;;2.94;100.00
64827;BME280;51265;53.972;12.286;2024-03-07T05:34:18;102027.13;;;2.98;100.00
64827;BME280;51265;53.972;12.286;2024-03-07T05:36:49;102021.63;;;3.05;100.00
64827;BME280;51265;53.972;12.286;2024-03-07T05:39:17;102025.84;;;3.00;100.00
64827;BME280;51265;53.972;12.286;2024-03-07T05:41:44;102019.38;;;3.02;100.00
64827;BME280;51265;53.972;12.286;2024-03-07T05:44:14;102020.38;;;3.00;100.00
64827;BME280;51265;53.972;12.286;2024-03-07T05:46:41;102020.84;;;2.91;100.00
64827;BME280;51265;53.972;12.286;2024-03-07T05:49:13;102036.31;;;3.04;100.00
64827;BME280;51265;53.972;12.286;2024-03-07T05:51:39;102029.63;;;2.99;100.00
64827;BME280;51265;53.972;12.286;2024-03-07T05:54:07;102018.34;;;2.89;100.00
64827;BME280;51265;53.972;12.286;2024-03-07T05:56:35;102023.56;;;2.84;100.00
64827;BME280;51265;53.972;12.286;2024-03-07T05:59:05;102022.59;;;2.72;100.00
64827;BME280;51265;53.972;12.286;2024-03-07T06:01:33;102030.97;;;2.64;100.00
64827;BME280;51265;53.972;12.286;2024-03-07T06:04:01;102035.97;;;2.73;100.00
64827;BME280;51265;53.972;12.286;2024-03-07T06:06:28;102026.78;;;2.68;100.00
64827;BME280;51265;53.972;12.286;2024-03-07T06:08:57;102023.84;;;2.63;100.00
64827;BME280;51265;53.972;12.286;2024-03-07T06:11:23;102023.84;;;2.49;100.00
64827;BME280;51265;53.972;12.286;2024-03-07T06:13:50;102024.72;;;2.43;100.00
64827;BME280;51265;53.972;12.286;2024-03-07T06:16:16;102029.53;;;2.48;100.00
64827;BME280;51265;53.972;12.286;2024-03-07T06:18:42;102031.59;;;2.53;100.00
64827;BME280;51265;53.972;12.286;2024-03-07T06:21:08;102032.66;;;2.52;100.00
64827;BME280;51265;53.972;12.286;2024-03-07T06:23:34;102038.50;;;2.48;100.00
64827;BME280;51265;53.972;12.286;2024-03-07T06:26:01;102037.66;;;2.41;100.00
64827;BME280;51265;53.972;12.286;2024-03-07T06:28:29;102044.78;;;2.42;100.00
64827;BME280;51265;53.972;12.286;2024-03-07T06:30:55;102038.50;;;2.42;100.00
64827;BME280;51265;53.972;12.286;2024-03-07T06:33:22;102049.81;;;2.45;100.00
64827;BME280;51265;53.972;12.286;2024-03-07T06:35:48;102054.81;;;2.48;100.00
64827;BME280;51265;53.972;12.286;2024-03-07T06:38:14;102053.78;;;2.49;100.00
64827;BME280;51265;53.972;12.286;2024-03-07T06:40:41;102054.81;;;2.48;100.00
64827;BME280;51265;53.972;12.286;2024-03-07T06:43:10;102056.06;;;2.53;100.00
64827;BME280;51265;53.972;12.286;2024-03-07T06:45:37;102063.63;;;2.64;100.00
64827;BME280;51265;53.972;12.286;2024-03-07T06:48:07;102060.69;;;2.72;100.00
64827;BME280;51265;53.972;12.286;2024-03-07T06:50:34;102070.28;;;2.81;100.00
64827;BME280;51265;53.972;12.286;2024-03-07T06:53:02;102071.50;;;2.92;100.00
64827;BME280;51265;53.972;12.286;2024-03-07T06:55:28;102071.72;;;2.90;100.00
64827;BME280;51265;53.972;12.286;2024-03-07T06:57:55;102068.34;;;2.88;100.00
64827;BME280;51265;53.972;12.286;2024-03-07T07:00:21;102065.63;;;2.88;100.00
64827;BME280;51265;53.972;12.286;2024-03-07T07:02:48;102072.38;;;2.86;100.00
64827;BME280;51265;53.972;12.286;2024-03-07T07:05:14;102069.00;;;2.90;100.00
64827;BME280;51265;53.972;12.286;2024-03-07T07:07:44;102074.03;;;2.93;100.00
64827;BME280;51265;53.972;12.286;2024-03-07T07:10:11;102072.75;;;3.03;100.00
64827;BME280;51265;53.972;12.286;2024-03-07T07:12:42;102079.41;;;3.13;100.00
64827;BME280;51265;53.972;12.286;2024-03-07T07:15:14;102069.78;;;3.11;100.00
64827;BME280;51265;53.972;12.286;2024-03-07T07:17:42;102082.53;;;3.17;100.00
64827;BME280;51265;53.972;12.286;2024-03-07T07:20:11;102083.59;;;3.16;100.00
64827;BME280;51265;53.972;12.286;2024-03-07T07:22:40;102084.41;;;3.23;100.00
64827;BME280;51265;53.972;12.286;2024-03-07T07:25:06;102088.50;;;3.45;100.00
64827;BME280;51265;53.972;12.286;2024-03-07T07:27:46;102096.19;;;3.68;100.00
64827;BME280;51265;53.972;12.286;2024-03-07T07:30:15;102085.94;;;3.64;100.00
64827;BME280;51265;53.972;12.286;2024-03-07T07:32:42;102082.75;;;3.67;100.00
64827;BME280;51265;53.972;12.286;2024-03-07T07:35:10;102081.25;;;3.71;100.00
64827;BME280;51265;53.972;12.286;2024-03-07T07:37:45;102074.13;;;3.77;100.00
64827;BME280;51265;53.972;12.286;2024-03-07T07:40:14;102075.72;;;3.91;100.00
64827;BME280;51265;53.972;12.286;2024-03-07T07:42:44;102070.25;;;3.91;100.00
64827;BME280;51265;53.972;12.286;2024-03-07T07:45:14;102062.91;;;3.91;100.00
64827;BME280;51265;53.972;12.286;2024-03-07T07:47:42;102066.00;;;4.02;100.00
64827;BME280;51265;53.972;12.286;2024-03-07T07:50:10;102066.34;;;4.12;100.00
64827;BME280;51265;53.972;12.286;2024-03-07T07:52:40;102061.22;;;4.22;100.00
64827;BME280;51265;53.972;12.286;2024-03-07T07:55:08;102045.38;;;4.12;100.00
64827;BME280;51265;53.972;12.286;2024-03-07T07:57:47;102030.75;;;4.07;100.00
64827;BME280;51265;53.972;12.286;2024-03-07T08:00:15;102026.00;;;4.20;100.00
64827;BME280;51265;53.972;12.286;2024-03-07T08:03:06;102019.44;;;4.28;100.00
64827;BME280;51265;53.972;12.286;2024-03-07T08:05:33;102029.16;;;4.42;100.00
64827;BME280;51265;53.972;12.286;2024-03-07T08:08:08;102024.50;;;4.49;100.00
64827;BME280;51265;53.972;12.286;2024-03-07T08:10:38;102024.44;;;4.56;100.00
64827;BME280;51265;53.972;12.286;2024-03-07T08:13:05;102013.00;;;4.66;100.00
64827;BME280;51265;53.972;12.286;2024-03-07T08:15:39;102008.91;;;4.75;100.00
64827;BME280;51265;53.972;12.286;2024-03-07T08:18:05;101998.75;;;4.82;100.00
64827;BME280;51265;53.972;12.286;2024-03-07T08:20:34;102000.28;;;4.78;100.00
64827;BME280;51265;53.972;12.286;2024-03-07T08:23:00;101987.06;;;4.75;100.00
64827;BME280;51265;53.972;12.286;2024-03-07T08:25:28;101991.47;;;4.76;100.00
64827;BME280;51265;53.972;12.286;2024-03-07T08:27:58;101975.94;;;4.77;100.00
64827;BME280;51265;53.972;12.286;2024-03-07T08:30:25;101966.91;;;4.76;100.00
64827;BME280;51265;53.972;12.286;2024-03-07T08:32:54;101972.97;;;4.78;100.00
64827;BME280;51265;53.972;12.286;2024-03-07T08:35:21;101978.28;;;4.91;100.00
64827;BME280;51265;53.972;12.286;2024-03-07T08:37:49;101983.00;;;5.03;100.00
64827;BME280;51265;53.972;12.286;2024-03-07T08:40:20;101975.09;;;5.13;100.00
64827;BME280;51265;53.972;12.286;2024-03-07T08:42:48;101965.97;;;5.19;100.00
64827;BME280;51265;53.972;12.286;2024-03-07T08:45:18;101967.69;;;5.32;100.00
64827;BME280;51265;53.972;12.286;2024-03-07T08:47:46;101967.13;;;5.41;100.00
64827;BME280;51265;53.972;12.286;2024-03-07T08:50:13;101949.09;;;5.40;100.00
64827;BME280;51265;53.972;12.286;2024-03-07T08:52:40;101956.47;;;5.52;100.00
64827;BME280;51265;53.972;12.286;2024-03-07T08:55:07;101953.41;;;5.60;100.00
64827;BME280;51265;53.972;12.286;2024-03-07T08:57:36;101955.34;;;5.71;100.00
64827;BME280;51265;53.972;12.286;2024-03-07T09:00:03;101960.03;;;5.82;100.00
64827;BME280;51265;53.972;12.286;2024-03-07T09:02:35;101965.44;;;6.01;99.82
64827;BME280;51265;53.972;12.286;2024-03-07T09:05:02;101970.19;;;6.17;99.75
64827;BME280;51265;53.972;12.286;2024-03-07T09:07:28;101971.03;;;6.29;99.08
64827;BME280;51265;53.972;12.286;2024-03-07T09:09:55;101960.72;;;6.31;98.38
64827;BME280;51265;53.972;12.286;2024-03-07T09:12:22;101958.31;;;6.46;96.97
64827;BME280;51265;53.972;12.286;2024-03-07T09:14:49;101952.00;;;6.58;96.41
64827;BME280;51265;53.972;12.286;2024-03-07T09:17:15;101939.88;;;6.54;95.37
64827;BME280;51265;53.972;12.286;2024-03-07T09:19:42;101926.81;;;6.32;94.43
64827;BME280;51265;53.972;12.286;2024-03-07T09:22:08;101920.72;;;6.54;93.76
64827;BME280;51265;53.972;12.286;2024-03-07T09:24:34;101910.69;;;6.47;92.77
64827;BME280;51265;53.972;12.286;2024-03-07T09:27:06;101910.69;;;6.47;92.00
64827;BME280;51265;53.972;12.286;2024-03-07T09:29:34;101893.72;;;6.45;90.95
64827;BME280;51265;53.972;12.286;2024-03-07T09:32:00;101907.59;;;6.67;89.91
64827;BME280;51265;53.972;12.286;2024-03-07T09:34:26;101887.13;;;6.70;88.85
64827;BME280;51265;53.972;12.286;2024-03-07T09:36:52;101886.69;;;6.49;89.59
64827;BME280;51265;53.972;12.286;2024-03-07T09:39:18;101896.06;;;6.54;89.62
64827;BME280;51265;53.972;12.286;2024-03-07T09:41:45;101907.09;;;6.82;90.79
64827;BME280;51265;53.972;12.286;2024-03-07T09:44:15;101898.59;;;6.95;89.18
64827;BME280;51265;53.972;12.286;2024-03-07T09:46:58;101883.22;;;6.94;87.63
64827;BME280;51265;53.972;12.286;2024-03-07T09:49:28;101865.88;;;6.77;86.67
64827;BME280;51265;53.972;12.286;2024-03-07T09:51:55;101876.75;;;7.01;87.07
64827;BME280;51265;53.972;12.286;2024-03-07T09:54:23;101873.94;;;6.95;86.86
64827;BME280;51265;53.972;12.286;2024-03-07T09:56:52;101897.81;;;7.12;87.92
64827;BME280;51265;53.972;12.286;2024-03-07T09:59:20;101877.53;;;7.13;86.91
64827;BME280;51265;53.972;12.286;2024-03-07T10:02:01;101876.16;;;7.27;86.68
64827;BME280;51265;53.972;12.286;2024-03-07T10:04:43;101871.13;;;7.36;85.63
64827;BME280;51265;53.972;12.286;2024-03-07T10:07:15;101865.22;;;7.44;84.53
64827;BME280;51265;53.972;12.286;2024-03-07T10:09:42;101853.13;;;7.57;83.92
64827;BME280;51265;53.972;12.286;2024-03-07T10:12:09;101850.38;;;7.57;83.62
64827;BME280;51265;53.972;12.286;2024-03-07T10:14:38;101836.69;;;7.57;83.14
64827;BME280;51265;53.972;12.286;2024-03-07T10:17:05;101841.81;;;7.70;82.69
64827;BME280;51265;53.972;12.286;2024-03-07T10:19:31;101834.63;;;7.86;82.18
64827;BME280;51265;53.972;12.286;2024-03-07T10:21:57;101820.25;;;7.95;80.99
64827;BME280;51265;53.972;12.286;2024-03-07T10:24:27;101801.13;;;8.01;79.12
64827;BME280;51265;53.972;12.286;2024-03-07T10:26:54;101788.06;;;8.08;78.12
64827;BME280;51265;53.972;12.286;2024-03-07T10:29:22;101786.53;;;8.17;77.79
64827;BME280;51265;53.972;12.286;2024-03-07T10:31:49;101761.78;;;8.12;77.05
64827;BME280;51265;53.972;12.286;2024-03-07T10:34:15;101766.38;;;8.28;76.66
64827;BME280;51265;53.972;12.286;2024-03-07T10:36:42;101781.97;;;8.44;76.72
64827;BME280;51265;53.972;12.286;2024-03-07T10:39:09;101778.28;;;8.61;76.49
64827;BME280;51265;53.972;12.286;2024-03-07T10:41:46;101760.38;;;8.53;75.34
64827;BME280;51265;53.972;12.286;2024-03-07T10:44:19;101750.19;;;8.76;74.67
64827;BME280;51265;53.972;12.286;2024-03-07T10:46:55;101748.94;;;8.88;74.20
64827;BME280;51265;53.972;12.286;2024-03-07T10:49:25;101713.81;;;8.90;72.62
64827;BME280;51265;53.972;12.286;2024-03-07T10:52:01;101697.00;;;8.60;72.13
64827;BME280;51265;53.972;12.286;2024-03-07T10:57:31;101665.91;;;8.81;69.73
64827;BME280;51265;53.972;12.286;2024-03-07T11:00:03;101635.34;;;9.10;68.35
64827;BME280;51265;53.972;12.286;2024-03-07T11:02:51;101603.97;;;9.01;66.93
64827;BME280;51265;53.972;12.286;2024-03-07T11:05:20;101615.13;;;9.26;66.52
64827;BME280;51265;53.972;12.286;2024-03-07T11:07:50;101614.78;;;9.17;66.78
64827;BME280;51265;53.972;12.286;2024-03-07T11:10:18;101635.47;;;9.30;67.64
64827;BME280;51265;53.972;12.286;2024-03-07T11:12:45;101617.59;;;9.28;66.47
64827;BME280;51265;53.972;12.286;2024-03-07T11:15:13;101605.34;;;9.45;65.94
64827;BME280;51265;53.972;12.286;2024-03-07T11:17:44;101590.53;;;9.57;65.38
64827;BME280;51265;53.972;12.286;2024-03-07T11:20:22;101593.31;;;9.62;64.80
64827;BME280;51265;53.972;12.286;2024-03-07T11:22:50;101602.72;;;9.81;64.82
64827;BME280;51265;53.972;12.286;2024-03-07T11:25:22;101577.66;;;9.72;64.64
64827;BME280;51265;53.972;12.286;2024-03-07T11:27:54;101567.47;;;9.73;63.78
64827;BME280;51265;53.972;12.286;2024-03-07T11:30:22;101598.09;;;9.92;64.47
64827;BME280;51265;53.972;12.286;2024-03-07T11:32:50;101583.56;;;10.17;63.81
64827;BME280;51265;53.972;12.286;2024-03-07T11:35:32;101544.97;;;9.91;62.75
64827;BME280;51265;53.972;12.286;2024-03-07T11:38:00;101539.44;;;9.86;62.90
64827;BME280;51265;53.972;12.286;2024-03-07T11:42:56;101533.41;;;9.79;62.80
64827;BME280;51265;53.972;12.286;2024-03-07T11:45:26;101546.63;;;9.87;62.82
64827;BME280;51265;53.972;12.286;2024-03-07T11:47:55;101559.88;;;10.06;63.20
64827;BME280;51265;53.972;12.286;2024-03-07T11:50:33;101546.94;;;10.21;62.53
64827;BME280;51265;53.972;12.286;2024-03-07T11:53:03;101519.13;;;10.18;61.54
64827;BME280;51265;53.972;12.286;2024-03-07T11:55:35;101492.16;;;10.15;60.98
64827;BME280;51265;53.972;12.286;2024-03-07T11:58:12;101490.00;;;10.37;60.30
64827;BME280;51265;53.972;12.286;2024-03-07T12:00:43;101474.88;;;10.25;60.03
64827;BME280;51265;53.972;12.286;2024-03-07T12:03:14;101511.47;;;10.35;61.29
64827;BME280;51265;53.972;12.286;2024-03-07T12:05:43;101470.94;;;10.15;60.57
64827;BME280;51265;53.972;12.286;2024-03-07T12:08:11;101497.13;;;10.28;60.93
64827;BME280;51265;53.972;12.286;2024-03-07T12:10:38;101483.63;;;10.11;60.68
64827;BME280;51265;53.972;12.286;2024-03-07T12:13:08;101489.44;;;10.51;60.53
64827;BME280;51265;53.972;12.286;2024-03-07T12:15:38;101480.06;;;10.52;60.14
64827;BME280;51265;53.972;12.286;2024-03-07T12:18:06;101465.72;;;10.60;59.87
64827;BME280;51265;53.972;12.286;2024-03-07T12:20:36;101477.31;;;10.62;59.83
64827;BME280;51265;53.972;12.286;2024-03-07T12:23:04;101444.19;;;10.77;58.66
64827;BME280;51265;53.972;12.286;2024-03-07T12:25:32;101455.75;;;10.84;58.90
64827;BME280;51265;53.972;12.286;2024-03-07T12:28:07;101445.88;;;10.68;59.04
64827;BME280;51265;53.972;12.286;2024-03-07T12:33:13;101438.66;;;10.87;58.17
64827;BME280;51265;53.972;12.286;2024-03-07T12:35:44;101435.84;;;10.97;58.01
64827;BME280;51265;53.972;12.286;2024-03-07T12:38:10;101452.59;;;11.16;58.21
64827;BME280;51265;53.972;12.286;2024-03-07T12:40:37;101473.88;;;11.06;59.15
64827;BME280;51265;53.972;12.286;2024-03-07T12:43:14;101413.56;;;10.89;57.84
64827;BME280;51265;53.972;12.286;2024-03-07T12:45:49;101432.47;;;11.11;57.54
64827;BME280;51265;53.972;12.286;2024-03-07T12:48:19;101415.19;;;11.50;57.03
64827;BME280;51265;53.972;12.286;2024-03-07T12:50:48;101390.38;;;11.50;56.18
64827;BME280;51265;53.972;12.286;2024-03-07T12:53:20;101401.44;;;11.39;56.60
64827;BME280;51265;53.972;12.286;2024-03-07T12:55:47;101354.16;;;11.17;56.18